Time;durP1;ratioP1;P1;durP2;ratioP2;P2;SDS_P1;SDS_P2;PMS_P1;PMS_P2;Temp;Humidity;BMP_temperature;BMP_pressure;BME280_temperature;BME280_humidity;BME280_pressure;Samples;Min_cycle;Max_cycle;Signal;HPM_P1;HPM_P2
2023/03/10 00:02:35;;;;;;;12.87;11.67;;;;;;;21.45;33.87;94290.84;6130275;28;109386;-61
2023/03/10 00:05:39;;;;;;;13.27;11.90;;;;;;;21.56;33.43;94301.91;6135875;28;108763;-60
2023/03/10 00:08:43;;;;;;;12.97;11.87;;;;;;;21.55;33.54;94293.16;6135420;28;109229;-60
2023/03/10 00:11:46;;;;;;;12.93;11.73;;;;;;;21.56;33.72;94297.38;6124288;28;109281;-60
2023/03/10 00:14:50;;;;;;;11.50;10.60;;;;;;;21.56;33.93;94315.22;6135881;28;109220;-60
2023/03/10 00:17:54;;;;;;;11.60;10.70;;;;;;;21.50;33.60;94306.63;6135584;28;109165;-60
2023/03/10 00:21:01;;;;;;;11.90;10.83;;;;;;;21.45;33.71;94299.59;6134606;28;109071;-60
2023/03/10 00:24:05;;;;;;;11.60;10.67;;;;;;;21.52;33.73;94315.88;6124340;28;109759;-62
2023/03/10 00:27:08;;;;;;;11.53;10.53;;;;;;;21.56;33.93;94312.56;6134454;28;109390;-60
2023/03/10 00:30:13;;;;;;;11.37;10.43;;;;;;;21.55;33.84;94311.78;6135506;28;109439;-61
2023/03/10 00:33:17;;;;;;;11.53;10.50;;;;;;;21.55;33.79;94311.00;6134215;28;109933;-60
2023/03/10 00:36:22;;;;;;;11.47;10.40;;;;;;;21.55;33.74;94309.13;6129156;28;110339;-60
2023/03/10 00:39:25;;;;;;;10.77;9.87;;;;;;;21.56;34.00;94315.22;6139676;28;109541;-60
2023/03/10 00:42:28;;;;;;;10.80;9.90;;;;;;;21.54;33.71;94301.47;6139574;28;109580;-57
2023/03/10 00:45:35;;;;;;;12.23;11.13;;;;;;;21.54;33.67;94301.47;6129063;28;110663;-57
2023/03/10 00:48:39;;;;;;;11.13;10.13;;;;;;;21.56;33.78;94293.94;6139134;28;109043;-57
2023/03/10 00:51:42;;;;;;;10.77;9.87;;;;;;;21.55;33.56;94295.81;6138199;28;109674;-59
2023/03/10 00:54:45;;;;;;;10.93;10.03;;;;;;;21.57;33.95;94292.84;6139157;28;110069;-56
2023/03/10 00:57:48;;;;;;;11.10;10.10;;;;;;;21.54;33.53;94288.94;6128263;28;109250;-57
2023/03/10 01:00:53;;;;;;;9.53;8.73;;;;;;;21.56;33.61;94288.59;6138900;28;112281;-57
2023/03/10 01:03:58;;;;;;;10.40;9.60;;;;;;;21.47;33.59;94278.75;6138854;28;109350;-57
2023/03/10 01:07:01;;;;;;;10.17;9.27;;;;;;;21.56;33.72;94291.28;6138784;28;109298;-57
2023/03/10 01:10:05;;;;;;;9.87;9.07;;;;;;;21.55;33.89;94300.34;6127737;28;110239;-57
2023/03/10 01:13:09;;;;;;;9.80;9.00;;;;;;;21.54;33.42;94293.47;6139600;28;108993;-58
2023/03/10 01:16:14;;;;;;;9.23;8.50;;;;;;;21.56;33.73;94304.59;6138377;28;109412;-57
2023/03/10 01:19:17;;;;;;;9.23;8.50;;;;;;;21.54;33.43;94304.91;6133155;28;110328;-57
2023/03/10 01:22:20;;;;;;;10.43;9.53;;;;;;;21.51;33.29;94290.34;6133379;28;110345;-57
2023/03/10 01:25:24;;;;;;;9.63;8.83;;;;;;;21.56;33.22;94285.94;6138550;28;110885;-58
2023/03/10 01:28:27;;;;;;;9.83;8.93;;;;;;;21.55;33.67;94284.38;6146153;28;109186;-58
2023/03/10 01:31:31;;;;;;;10.00;9.10;;;;;;;21.55;33.63;94284.38;6130777;28;109313;-57
2023/03/10 01:34:34;;;;;;;9.63;8.63;;;;;;;21.54;33.35;94290.81;6140264;28;109681;-57
2023/03/10 01:37:38;;;;;;;8.87;8.07;;;;;;;21.50;33.44;94285.31;6140175;28;109832;-57
2023/03/10 01:40:47;;;;;;;9.50;8.60;;;;;;;21.55;33.45;94284.38;6141738;28;109287;-57
2023/03/10 01:43:52;;;;;;;8.97;8.17;;;;;;;21.55;33.17;94289.72;6127537;28;109309;-57
2023/03/10 01:46:57;;;;;;;8.90;8.20;;;;;;;21.53;33.57;94290.03;6137238;28;108976;-57
2023/03/10 01:50:02;;;;;;;8.90;8.20;;;;;;;21.53;33.71;94287.38;6137801;28;109066;-57
2023/03/10 01:53:06;;;;;;;8.60;7.90;;;;;;;21.54;33.24;94290.81;6132430;28;110370;-57
2023/03/10 01:56:09;;;;;;;8.90;8.20;;;;;;;21.55;33.17;94300.34;6116304;28;109266;-57
2023/03/10 01:59:12;;;;;;;8.40;7.60;;;;;;;21.55;33.14;94306.47;6137614;28;110201;-57
2023/03/10 02:02:18;;;;;;;8.43;7.73;;;;;;;21.45;33.19;94293.50;6137367;28;109163;-57
2023/03/10 02:05:22;;;;;;;8.53;7.77;;;;;;;21.54;33.31;94301.47;6126063;28;109082;-57
2023/03/10 02:08:29;;;;;;;8.90;8.20;;;;;;;21.53;33.45;94311.31;6137376;28;109060;-57
2023/03/10 02:11:33;;;;;;;8.30;7.50;;;;;;;21.44;33.55;94291.94;6137748;28;109213;-57
2023/03/10 02:14:37;;;;;;;8.00;7.40;;;;;;;21.43;33.16;94298.38;6137959;28;109406;-57
2023/03/10 02:17:41;;;;;;;7.30;6.70;;;;;;;21.54;33.39;94306.78;6126667;28;110461;-57
2023/03/10 02:20:53;;;;;;;7.70;7.10;;;;;;;21.54;33.42;94301.47;6137250;28;109038;-57
2023/03/10 02:24:03;;;;;;;7.43;6.73;;;;;;;21.54;33.23;94304.13;6136943;28;109469;-59
2023/03/10 02:27:14;;;;;;;7.43;6.77;;;;;;;21.51;33.30;94301.00;6129467;28;109202;-61
2023/03/10 02:30:23;;;;;;;7.60;7.00;;;;;;;21.52;33.10;94299.91;6131577;28;109720;-59
2023/03/10 02:33:28;;;;;;;7.23;6.63;;;;;;;21.52;33.42;94301.78;6136989;28;109149;-58
2023/03/10 02:36:31;;;;;;;7.60;7.00;;;;;;;21.53;33.27;94303.34;6137043;28;109044;-58
2023/03/10 02:39:34;;;;;;;7.13;6.43;;;;;;;21.41;33.14;94274.72;6125928;28;110156;-60
2023/03/10 02:42:39;;;;;;;7.17;6.57;;;;;;;21.52;33.20;94302.56;6137692;28;109629;-59
2023/03/10 02:45:44;;;;;;;6.97;6.27;;;;;;;21.42;33.46;94286.16;6148826;28;110021;-60
2023/03/10 02:48:48;;;;;;;7.70;7.00;;;;;;;21.49;33.31;94287.22;6139110;28;109790;-59
2023/03/10 02:51:51;;;;;;;7.33;6.73;;;;;;;21.52;33.28;94291.91;6126571;28;109081;-60
2023/03/10 02:54:54;;;;;;;6.80;6.20;;;;;;;21.51;33.36;94289.56;6143364;28;110177;-60
2023/03/10 02:58:01;;;;;;;6.80;6.20;;;;;;;21.53;33.07;94292.69;6136226;28;109217;-60
2023/03/10 03:01:05;;;;;;;7.10;6.50;;;;;;;21.49;33.22;94283.75;6132188;28;108882;-60
2023/03/10 03:04:08;;;;;;;6.93;6.33;;;;;;;21.51;33.26;94286.91;6129919;28;109137;-60
2023/03/10 03:07:12;;;;;;;6.03;5.57;;;;;;;21.49;33.21;94279.22;6136693;28;109061;-60
2023/03/10 03:10:15;;;;;;;6.40;5.90;;;;;;;21.49;33.42;94283.75;6136574;28;109074;-59
2023/03/10 03:13:20;;;;;;;6.03;5.53;;;;;;;21.51;33.13;94285.03;6126115;28;110854;-59
2023/03/10 03:16:23;;;;;;;6.40;5.90;;;;;;;21.43;33.24;94283.16;6136804;28;109280;-59
2023/03/10 03:19:26;;;;;;;6.73;6.20;;;;;;;21.48;33.06;94284.88;6136101;28;109356;-60
2023/03/10 03:22:31;;;;;;;5.60;5.10;;;;;;;21.49;33.38;94281.88;6135873;28;109007;-60
2023/03/10 03:25:36;;;;;;;5.50;5.00;;;;;;;21.50;33.00;94294.09;6124369;28;109599;-60
2023/03/10 03:28:41;;;;;;;6.30;5.77;;;;;;;21.43;33.09;94275.19;6136173;28;109573;-60
2023/03/10 03:31:44;;;;;;;5.83;5.33;;;;;;;21.51;33.48;94284.25;6136182;28;109225;-60
2023/03/10 03:34:48;;;;;;;6.20;5.70;;;;;;;21.49;33.49;94287.22;6136459;28;109499;-60
2023/03/10 03:37:52;;;;;;;5.60;5.20;;;;;;;21.49;33.59;94279.22;6125971;28;110152;-60
2023/03/10 03:40:55;;;;;;;5.90;5.40;;;;;;;21.50;33.39;94270.13;6136727;28;110286;-60
2023/03/10 03:44:00;;;;;;;6.17;5.67;;;;;;;21.50;33.39;94278.13;6135552;28;109666;-60
2023/03/10 03:47:04;;;;;;;5.30;4.80;;;;;;;21.50;33.40;94278.13;6129704;28;109290;-59
2023/03/10 03:50:10;;;;;;;5.50;5.10;;;;;;;21.49;33.49;94283.75;6132670;28;109076;-60
2023/03/10 03:53:13;;;;;;;5.30;4.90;;;;;;;21.24;33.58;94252.72;6135765;28;109277;-59
2023/03/10 03:56:16;;;;;;;5.83;5.30;;;;;;;21.40;33.40;94267.06;6144487;28;109776;-60
2023/03/10 03:59:21;;;;;;;5.50;5.10;;;;;;;21.50;33.38;94287.97;6125015;28;109309;-60
2023/03/10 04:02:24;;;;;;;5.17;4.77;;;;;;;21.49;33.30;94281.88;6135007;28;109078;-61
2023/03/10 04:05:28;;;;;;;5.47;5.07;;;;;;;21.48;33.29;94282.19;6136376;28;110335;-61
2023/03/10 04:08:31;;;;;;;6.20;5.70;;;;;;;21.49;33.38;94287.22;6135616;28;109166;-61
2023/03/10 04:11:34;;;;;;;5.27;4.77;;;;;;;21.44;33.27;94278.63;6129674;28;110246;-60
2023/03/10 04:14:38;;;;;;;5.37;4.97;;;;;;;21.49;33.41;94284.53;6139925;28;110684;-60
2023/03/10 04:17:42;;;;;;;4.73;4.33;;;;;;;21.49;32.91;94284.53;6139866;28;110126;-60
2023/03/10 04:20:45;;;;;;;6.47;5.87;;;;;;;21.49;32.98;94292.53;6136815;28;109282;-60
2023/03/10 04:23:48;;;;;;;9.27;8.57;;;;;;;21.50;33.28;94286.09;6133242;28;110409;-60
2023/03/10 04:26:51;;;;;;;24.93;23.03;;;;;;;21.54;33.98;94275.63;6130987;28;109079;-63
2023/03/10 04:29:56;;;;;;;78.43;72.57;;;;;;;21.55;35.00;94271.06;6139566;28;109105;-63
2023/03/10 04:33:00;;;;;;;88.50;81.90;;;;;;;21.57;35.23;94277.63;6128985;28;109292;-62
2023/03/10 04:36:04;;;;;;;90.87;84.10;;;;;;;21.57;35.25;94274.19;6139410;28;109896;-63
2023/03/10 04:39:08;;;;;;;92.90;86.00;;;;;;;21.57;35.32;94272.31;6139001;28;109985;-62
2023/03/10 04:42:11;;;;;;;90.37;83.53;;;;;;;21.60;35.45;94263.69;6139042;28;110172;-63
2023/03/10 04:45:16;;;;;;;87.27;80.67;;;;;;;21.57;36.00;94266.22;6128255;28;110204;-62
2023/03/10 04:48:19;;;;;;;55.80;50.50;;;;;;;21.50;34.92;94269.34;6139508;28;110116;-62
2023/03/10 04:51:22;;;;;;;40.30;37.03;;;;;;;21.33;34.58;94267.53;6138446;28;110098;-63
2023/03/10 04:54:25;;;;;;;36.00;33.23;;;;;;;21.39;34.72;94255.66;6139521;28;109160;-62
2023/03/10 04:57:28;;;;;;;28.77;26.00;;;;;;;21.38;34.64;94258.63;6128823;28;109347;-63
2023/03/10 05:00:33;;;;;;;38.43;35.60;;;;;;;21.36;34.74;94261.59;6145439;28;109265;-62
2023/03/10 05:03:37;;;;;;;31.27;28.67;;;;;;;21.40;34.84;94256.41;6149122;28;109239;-63
2023/03/10 05:06:40;;;;;;;21.13;19.50;;;;;;;21.44;35.65;94252.78;6129592;28;109343;-62
2023/03/10 05:09:43;;;;;;;16.30;15.00;;;;;;;21.46;35.18;94239.94;6137870;28;110106;-63
2023/03/10 05:12:46;;;;;;;15.27;13.97;;;;;;;21.53;35.25;94239.47;6139851;28;109369;-63
2023/03/10 05:15:51;;;;;;;13.53;12.13;;;;;;;21.54;34.87;94232.25;6138700;28;109361;-63
2023/03/10 05:18:54;;;;;;;12.93;9.40;;;;;;;21.57;35.00;94231.59;6127602;28;110486;-60
2023/03/10 05:21:57;;;;;;;10.10;9.23;;;;;;;21.54;34.96;94221.59;6138776;28;109420;-60
2023/03/10 05:25:00;;;;;;;9.80;9.00;;;;;;;21.60;34.90;94222.97;6139040;28;110842;-61
2023/03/10 05:28:03;;;;;;;10.10;9.23;;;;;;;21.71;34.27;94227.59;6138240;28;109225;-60
2023/03/10 05:31:13;;;;;;;9.40;8.60;;;;;;;21.76;34.07;94221.31;6119233;28;111360;-59
2023/03/10 05:34:16;;;;;;;8.97;8.07;;;;;;;21.78;33.94;94229.75;6115002;28;109057;-60
2023/03/10 05:37:19;;;;;;;8.53;7.60;;;;;;;21.74;34.27;94220.84;6114551;28;109448;-60
2023/03/10 05:40:22;;;;;;;8.77;8.00;;;;;;;21.79;33.86;94220.66;6109376;28;109069;-61
2023/03/10 05:43:25;;;;;;;8.07;7.27;;;;;;;21.78;33.80;94221.75;6108726;28;109403;-60
2023/03/10 05:46:30;;;;;;;7.83;7.23;;;;;;;21.77;34.35;94222.84;6114192;28;109387;-60
2023/03/10 05:49:33;;;;;;;7.07;6.40;;;;;;;21.70;34.22;94211.94;6114751;28;109241;-60
2023/03/10 05:52:42;;;;;;;6.90;6.30;;;;;;;21.72;33.98;94223.06;6103293;28;109071;-60
2023/03/10 05:55:45;;;;;;;6.47;6.07;;;;;;;21.71;34.17;94222.28;6114077;28;109087;-60
2023/03/10 05:58:49;;;;;;;7.10;6.40;;;;;;;21.70;33.90;94209.28;6113523;28;109048;-61
2023/03/10 06:01:54;;;;;;;7.33;6.60;;;;;;;21.68;34.09;94214.16;6113689;28;109283;-61
2023/03/10 06:04:57;;;;;;;5.73;5.27;;;;;;;21.68;33.88;94208.84;6103045;28;109458;-60
2023/03/10 06:08:00;;;;;;;6.07;5.10;;;;;;;21.68;34.41;94208.84;6114289;28;108889;-60
2023/03/10 06:11:05;;;;;;;6.30;5.60;;;;;;;21.64;34.52;94207.91;6114280;28;108873;-60
2023/03/10 06:14:08;;;;;;;6.20;5.70;;;;;;;21.61;34.10;94206.66;6110781;28;109216;-60
2023/03/10 06:17:13;;;;;;;9.03;7.50;;;;;;;21.62;34.41;94220.75;6109003;28;110806;-60
2023/03/10 06:20:17;;;;;;;7.53;6.83;;;;;;;21.62;34.57;94220.75;6114461;28;109439;-61
2023/03/10 06:23:21;;;;;;;7.27;6.57;;;;;;;21.59;34.48;94216.06;6114190;28;109135;-61
2023/03/10 06:26:24;;;;;;;6.70;6.17;;;;;;;21.61;34.54;94214.66;6102831;28;109159;-60
2023/03/10 06:29:28;;;;;;;6.60;6.10;;;;;;;21.60;34.26;94213.09;6113412;28;109258;-60
2023/03/10 06:32:34;;;;;;;6.43;5.80;;;;;;;21.60;34.34;94207.00;6112937;28;109323;-60
2023/03/10 06:35:37;;;;;;;6.40;5.80;;;;;;;21.63;34.25;94211.66;6113724;28;109602;-60
2023/03/10 06:38:41;;;;;;;5.97;5.37;;;;;;;21.62;34.55;94216.22;6102895;28;110746;-60
2023/03/10 06:41:44;;;;;;;5.90;5.40;;;;;;;21.61;34.03;94208.53;6113999;28;109560;-60
2023/03/10 06:44:47;;;;;;;7.27;6.13;;;;;;;21.51;34.38;94194.53;6113922;28;109075;-59
2023/03/10 06:47:52;;;;;;;5.40;4.90;;;;;;;21.59;34.15;94216.84;6113424;28;110225;-60
2023/03/10 06:50:55;;;;;;;5.50;5.00;;;;;;;21.59;34.51;94211.53;6103738;28;109160;-60
2023/03/10 06:53:58;;;;;;;5.70;5.10;;;;;;;21.58;34.05;94209.97;6113690;28;109256;-61
2023/03/10 06:57:02;;;;;;;5.30;4.90;;;;;;;21.59;33.98;94210.75;6113215;28;109750;-60
2023/03/10 07:00:10;;;;;;;5.10;4.70;;;;;;;21.51;34.13;94213.16;6106651;28;109756;-61
2023/03/10 07:03:14;;;;;;;5.67;5.10;;;;;;;21.59;34.30;94216.06;6109796;28;111302;-60
2023/03/10 07:06:18;;;;;;;5.13;4.73;;;;;;;21.58;33.98;94217.97;6112991;28;109852;-61
2023/03/10 07:09:21;;;;;;;4.30;4.00;;;;;;;21.56;33.95;94219.41;6113346;28;110178;-61
2023/03/10 07:12:24;;;;;;;5.30;4.80;;;;;;;21.57;34.01;94224.41;6102404;28;109103;-60
2023/03/10 07:15:27;;;;;;;4.77;4.37;;;;;;;21.58;34.61;94217.97;6113058;28;109024;-59
2023/03/10 07:18:32;;;;;;;5.43;4.87;;;;;;;21.55;33.94;94205.31;6112970;28;109586;-60
2023/03/10 07:21:35;;;;;;;4.60;4.30;;;;;;;21.55;34.16;94199.97;6113015;28;109034;-60
2023/03/10 07:24:38;;;;;;;5.57;4.10;;;;;;;21.59;34.26;94194.78;6101678;28;109303;-60
2023/03/10 07:27:41;;;;;;;4.43;4.07;;;;;;;21.57;33.73;94195.09;6112452;28;109284;-60
2023/03/10 07:30:44;;;;;;;4.57;4.17;;;;;;;21.58;34.10;94190.56;6111978;28;109788;-60
2023/03/10 07:33:49;;;;;;;4.73;4.40;;;;;;;21.58;34.17;94186.03;6108061;28;110058;-61
2023/03/10 07:36:52;;;;;;;4.03;3.73;;;;;;;21.58;33.94;94194.00;6106864;28;109027;-61
2023/03/10 07:39:55;;;;;;;7.27;6.50;;;;;;;21.60;34.39;94201.66;6112697;28;109231;-63
2023/03/10 07:42:59;;;;;;;5.50;5.00;;;;;;;21.59;34.21;94200.09;6112443;28;109181;-64
2023/03/10 07:46:05;;;;;;;5.37;4.90;;;;;;;21.55;34.05;94180.56;6108726;28;110032;-63
2023/03/10 07:49:10;;;;;;;5.60;5.10;;;;;;;21.61;34.40;94188.03;6120576;28;109016;-64
2023/03/10 07:52:17;;;;;;;6.07;5.57;;;;;;;21.63;34.44;94169.84;6120684;28;109358;-63
2023/03/10 07:55:20;;;;;;;7.33;6.70;;;;;;;21.58;34.76;94151.41;6120319;28;112376;-60
2023/03/10 07:58:24;;;;;;;6.70;6.00;;;;;;;21.71;34.26;94160.25;6109241;28;110121;-60
2023/03/10 08:01:27;;;;;;;6.30;5.80;;;;;;;21.74;34.07;94154.28;6119228;28;108838;-59
2023/03/10 08:04:32;;;;;;;6.37;5.87;;;;;;;21.75;34.27;94145.97;6120206;28;110051;-59
2023/03/10 08:07:36;;;;;;;6.63;6.03;;;;;;;21.79;34.38;94151.41;6120149;28;109898;-61
2023/03/10 08:10:39;;;;;;;6.50;5.93;;;;;;;21.81;33.93;94143.88;6110491;28;109130;-61
2023/03/10 08:13:44;;;;;;;5.27;4.77;;;;;;;21.83;33.98;94143.56;6120113;28;108985;-60
2023/03/10 08:16:48;;;;;;;6.17;5.67;;;;;;;21.83;34.18;94130.25;6120120;28;110263;-60
2023/03/10 08:19:52;;;;;;;6.10;5.60;;;;;;;21.81;33.92;94128.66;6109342;28;109307;-60
2023/03/10 08:22:55;;;;;;;5.67;5.17;;;;;;;21.83;34.00;94120.38;6120004;28;110574;-60
2023/03/10 08:26:01;;;;;;;6.10;5.57;;;;;;;21.84;33.81;94113.94;6120216;28;108954;-61
2023/03/10 08:29:04;;;;;;;5.10;4.70;;;;;;;21.86;33.99;94103.78;6119842;28;109306;-61
2023/03/10 08:32:07;;;;;;;5.50;5.00;;;;;;;21.99;34.02;94100.03;6108215;28;110141;-61
2023/03/10 08:35:12;;;;;;;6.00;5.40;;;;;;;22.00;34.14;94088.25;6119929;28;108897;-61
2023/03/10 08:38:15;;;;;;;6.27;5.70;;;;;;;22.07;34.17;94082.41;6119516;28;109080;-61
2023/03/10 08:41:21;;;;;;;4.73;4.37;;;;;;;22.14;34.19;94079.97;6119437;28;108967;-61
2023/03/10 08:44:24;;;;;;;5.77;5.27;;;;;;;22.21;33.80;94076.81;6108327;28;110248;-61
2023/03/10 08:47:27;;;;;;;5.93;5.43;;;;;;;22.25;34.37;94075.03;6119286;28;108879;-60
2023/03/10 08:50:35;;;;;;;5.80;5.20;;;;;;;22.30;34.92;94080.91;6119209;28;109153;-60
2023/03/10 08:53:38;;;;;;;5.10;4.70;;;;;;;22.24;33.78;94055.59;6114166;28;108931;-60
2023/03/10 08:56:42;;;;;;;5.57;5.07;;;;;;;22.37;33.66;94067.06;6110271;28;109220;-60
2023/03/10 08:59:45;;;;;;;5.33;4.83;;;;;;;22.40;34.14;94061.06;6115228;28;109115;-61
2023/03/10 09:02:48;;;;;;;4.93;4.40;;;;;;;22.42;34.07;94053.50;6114050;28;112199;-60
2023/03/10 09:05:54;;;;;;;5.33;4.83;;;;;;;22.47;33.38;94055.94;6104750;28;110611;-60
2023/03/10 09:08:58;;;;;;;5.30;4.80;;;;;;;22.50;33.55;94041.94;6114972;28;109293;-60
2023/03/10 09:12:01;;;;;;;5.07;4.57;;;;;;;22.52;33.75;94041.66;6115038;28;109326;-60
2023/03/10 09:15:04;;;;;;;5.17;4.77;;;;;;;22.55;33.16;94038.31;6115508;28;110170;-60
2023/03/10 09:18:08;;;;;;;5.23;4.73;;;;;;;22.57;33.60;94046.78;6104910;28;109462;-60
2023/03/10 09:21:14;;;;;;;5.37;4.87;;;;;;;22.54;33.27;94040.19;6115207;28;110340;-60
2023/03/10 09:24:18;;;;;;;5.23;4.73;;;;;;;22.53;33.66;94038.66;6115157;28;109478;-60
2023/03/10 09:27:21;;;;;;;4.90;4.50;;;;;;;22.51;33.50;94027.50;6109987;28;108945;-59
2023/03/10 09:30:25;;;;;;;5.53;5.13;;;;;;;22.50;33.69;94025.19;6109083;28;110120;-60
2023/03/10 09:33:28;;;;;;;5.40;4.70;;;;;;;22.46;33.30;94022.41;6114033;28;109287;-60
2023/03/10 09:36:33;;;;;;;4.93;4.53;;;;;;;22.39;33.46;94009.63;6114554;28;109044;-60
2023/03/10 09:39:36;;;;;;;4.60;4.20;;;;;;;22.39;33.69;94020.28;6104410;28;109019;-60
2023/03/10 09:42:42;;;;;;;4.43;4.03;;;;;;;22.33;33.61;94010.16;6114626;28;110295;-60
2023/03/10 09:45:51;;;;;;;4.67;4.27;;;;;;;22.31;33.56;94007.06;6114544;28;109292;-60
2023/03/10 09:49:02;;;;;;;5.03;4.40;;;;;;;22.29;33.88;94011.94;6114317;28;109304;-60
2023/03/10 09:52:21;;;;;;;4.43;4.10;;;;;;;22.22;33.86;94001.06;6103580;28;110286;-60
2023/03/10 09:55:27;;;;;;;5.00;4.60;;;;;;;22.21;33.47;94002.19;6114585;28;109337;-60
2023/03/10 09:58:34;;;;;;;4.73;4.33;;;;;;;22.09;33.50;93985.06;6114584;28;110091;-60
2023/03/10 10:01:43;;;;;;;4.40;4.00;;;;;;;22.15;33.58;93998.16;6109132;28;110339;-60
2023/03/10 10:04:48;;;;;;;4.30;4.00;;;;;;;22.07;33.67;93987.28;6108030;28;109849;-61
2023/03/10 10:07:56;;;;;;;4.00;3.70;;;;;;;22.09;33.52;93985.06;6114026;28;109104;-60
2023/03/10 10:11:01;;;;;;;4.00;3.70;;;;;;;22.06;33.70;93972.41;6114170;28;109128;-60
2023/03/10 10:14:19;;;;;;;4.50;4.10;;;;;;;22.02;33.82;93958.19;6103352;28;110576;-61
2023/03/10 10:17:47;;;;;;;4.43;4.10;;;;;;;21.95;33.85;93952.63;6114133;28;109076;-60
2023/03/10 10:21:06;;;;;;;4.67;4.27;;;;;;;22.02;34.12;93960.09;6114239;28;110038;-61
2023/03/10 10:24:14;;;;;;;4.00;3.70;;;;;;;22.00;33.75;93963.06;6109208;28;109141;-61
2023/03/10 10:27:17;;;;;;;4.93;3.93;;;;;;;21.99;33.78;93966.06;6109019;28;110027;-61
2023/03/10 10:30:30;;;;;;;4.33;4.03;;;;;;;21.97;33.74;93955.72;6113815;28;109026;-60
2023/03/10 10:33:52;;;;;;;3.90;3.60;;;;;;;21.95;34.12;93957.19;6113774;28;109246;-60
2023/03/10 10:36:56;;;;;;;5.13;4.63;;;;;;;21.94;33.99;93955.63;6102347;28;111293;-62
2023/03/10 10:40:03;;;;;;;3.57;3.27;;;;;;;21.94;34.27;93955.63;6113759;28;109242;-60
2023/03/10 10:43:15;;;;;;;4.73;4.30;;;;;;;21.91;33.95;93951.75;6114076;28;109068;-61
2023/03/10 10:46:25;;;;;;;4.23;3.93;;;;;;;21.92;34.15;93965.84;6113741;28;109107;-60
2023/03/10 10:49:32;;;;;;;3.90;3.60;;;;;;;21.88;33.87;93968.38;6101841;28;109072;-63
2023/03/10 10:52:35;;;;;;;4.20;3.80;;;;;;;21.88;34.14;93960.41;6113389;28;109305;-60
2023/03/10 10:55:41;;;;;;;3.90;3.60;;;;;;;21.88;34.04;93967.63;6113428;28;109651;-60
2023/03/10 10:58:46;;;;;;;4.10;3.80;;;;;;;21.87;33.86;93966.84;6106218;28;109065;-60
2023/03/10 11:01:53;;;;;;;3.47;3.20;;;;;;;21.85;33.96;93962.94;6110524;28;109076;-61
2023/03/10 11:05:13;;;;;;;4.23;3.83;;;;;;;21.84;33.94;93954.16;6113189;28;109270;-61
2023/03/10 11:08:18;;;;;;;3.70;3.40;;;;;;;21.84;33.98;93956.81;6112504;28;109501;-61
2023/03/10 11:11:29;;;;;;;4.33;3.93;;;;;;;21.76;34.06;93944.34;6102100;28;109250;-62
2023/03/10 11:14:41;;;;;;;4.07;3.67;;;;;;;21.84;33.74;93940.06;6113054;28;109322;-61
2023/03/10 11:17:52;;;;;;;3.90;3.60;;;;;;;21.83;33.75;93933.97;6113158;28;110026;-61
2023/03/10 11:21:01;;;;;;;3.90;3.60;;;;;;;21.81;34.00;93912.97;6107750;28;112161;-61
2023/03/10 11:24:13;;;;;;;3.90;3.60;;;;;;;21.80;34.13;93902.63;6107092;28;110073;-60
2023/03/10 11:27:26;;;;;;;3.47;3.17;;;;;;;21.80;34.03;93890.09;6112955;28;109288;-60
2023/03/10 11:30:32;;;;;;;3.97;3.67;;;;;;;21.78;34.13;93881.66;6112847;28;109174;-60
2023/03/10 11:33:45;;;;;;;4.37;4.07;;;;;;;21.79;33.75;93879.78;6102306;28;110717;-60
2023/03/10 11:37:00;;;;;;;3.77;3.47;;;;;;;21.79;34.36;93877.13;6112664;28;109051;-61
2023/03/10 11:40:18;;;;;;;4.30;3.33;;;;;;;21.66;34.19;93854.25;6111887;28;110166;-60
2023/03/10 11:43:32;;;;;;;3.80;3.50;;;;;;;21.78;34.18;93873.69;6112706;28;110416;-60
2023/03/10 11:46:43;;;;;;;3.63;3.33;;;;;;;21.78;34.01;93879.00;6105595;28;109748;-60
2023/03/10 11:49:57;;;;;;;3.60;3.30;;;;;;;21.76;34.31;93875.91;6112574;28;109005;-61
2023/03/10 11:53:04;;;;;;;4.00;3.70;;;;;;;21.71;34.01;93857.50;6112638;28;110285;-61
2023/03/10 11:56:11;;;;;;;3.37;3.07;;;;;;;21.71;33.95;93854.06;6101063;28;109351;-60
2023/03/10 11:59:18;;;;;;;3.40;3.10;;;;;;;21.74;33.85;93856.03;6112593;28;110273;-61
2023/03/10 12:02:26;;;;;;;3.50;3.20;;;;;;;21.75;34.43;93849.59;6111513;28;109095;-61
2023/03/10 12:05:44;;;;;;;3.70;3.40;;;;;;;21.73;34.40;93844.63;6112422;28;109460;-61
2023/03/10 12:08:51;;;;;;;3.23;2.93;;;;;;;21.73;34.29;93833.97;6101235;28;108843;-61
2023/03/10 12:11:54;;;;;;;3.73;3.40;;;;;;;21.73;34.05;93825.97;6111449;28;109161;-60
2023/03/10 12:15:00;;;;;;;3.40;3.10;;;;;;;21.73;34.17;93811.88;6111994;28;108897;-60
2023/03/10 12:18:05;;;;;;;3.30;3.10;;;;;;;21.72;34.08;93808.44;6106260;28;109139;-60
2023/03/10 12:21:22;;;;;;;2.77;2.57;;;;;;;21.71;34.04;93804.25;6106891;28;109004;-61
2023/03/10 12:24:45;;;;;;;2.93;2.73;;;;;;;21.70;33.82;93786.72;6112168;28;109121;-61
2023/03/10 12:28:27;;;;;;;3.20;3.00;;;;;;;21.72;34.35;93800.47;6112115;28;109032;-60
2023/03/10 12:31:48;;;;;;;3.37;3.07;;;;;;;21.71;34.22;93771.50;6098513;28;109265;-60
2023/03/10 12:35:24;;;;;;;2.60;2.40;;;;;;;21.72;33.77;93773.06;6116578;28;110055;-61
2023/03/10 12:38:52;;;;;;;2.80;2.60;;;;;;;21.70;34.08;93780.59;6116017;28;109134;-61
2023/03/10 12:41:56;;;;;;;3.00;2.67;;;;;;;21.75;34.18;93778.50;6105035;28;109157;-61
2023/03/10 12:45:17;;;;;;;3.40;3.10;;;;;;;21.77;35.06;93759.50;6115215;28;108979;-61
2023/03/10 12:48:22;;;;;;;3.10;2.80;;;;;;;21.76;35.08;93763.28;6115884;28;109247;-60
2023/03/10 12:51:28;;;;;;;3.03;2.70;;;;;;;21.66;34.75;93756.50;6115764;28;110531;-59
2023/03/10 12:54:52;;;;;;;3.50;3.07;;;;;;;21.73;35.04;93754.09;6105107;28;110127;-60
2023/03/10 12:58:09;;;;;;;3.67;2.67;;;;;;;21.70;34.98;93740.69;6110736;28;109477;-60
2023/03/10 13:01:17;;;;;;;2.90;2.70;;;;;;;21.72;34.93;93747.22;6115058;28;109214;-60
2023/03/10 13:04:23;;;;;;;2.50;2.30;;;;;;;21.73;34.65;93750.66;6104560;28;109796;-60
2023/03/10 13:07:28;;;;;;;2.80;2.30;;;;;;;21.66;34.78;93726.47;6115577;28;109332;-60
2023/03/10 13:10:35;;;;;;;3.73;3.07;;;;;;;21.69;34.78;93728.47;6115253;28;109185;-61
2023/03/10 13:13:39;;;;;;;2.83;2.50;;;;;;;21.72;34.82;93733.13;6115329;28;109080;-61
2023/03/10 13:16:53;;;;;;;2.50;2.30;;;;;;;21.71;34.86;93712.94;6102992;28;109889;-60
2023/03/10 13:20:00;;;;;;;2.90;2.70;;;;;;;21.72;34.67;93703.84;6115228;28;109548;-61
2023/03/10 13:23:03;;;;;;;3.00;2.80;;;;;;;21.70;34.41;93701.50;6115031;28;109060;-60
2023/03/10 13:26:14;;;;;;;2.70;2.50;;;;;;;21.69;34.90;93702.63;6110139;28;109429;-60
2023/03/10 13:29:20;;;;;;;4.03;2.40;;;;;;;21.56;34.77;93669.16;6109545;28;110686;-60
2023/03/10 13:32:24;;;;;;;2.67;2.47;;;;;;;21.69;34.28;93672.56;6114987;28;109736;-60
2023/03/10 13:35:33;;;;;;;3.17;2.87;;;;;;;21.60;34.34;93670.00;6114821;28;110259;-60
2023/03/10 13:38:42;;;;;;;2.90;2.53;;;;;;;21.69;34.63;93669.91;6104392;28;110575;-60
2023/03/10 13:41:47;;;;;;;2.43;2.23;;;;;;;21.71;34.46;93657.03;6114017;28;109767;-60
2023/03/10 13:44:50;;;;;;;3.20;2.20;;;;;;;21.70;34.40;93652.81;6114542;28;109242;-60
2023/03/10 13:47:54;;;;;;;2.50;2.30;;;;;;;21.68;34.43;93645.16;6113547;28;109727;-60
2023/03/10 13:51:07;;;;;;;3.20;2.90;;;;;;;21.69;34.38;93635.28;6103630;28;110013;-60
2023/03/10 13:54:18;;;;;;;2.50;2.30;;;;;;;21.69;34.24;93625.41;6114474;28;110215;-60
2023/03/10 13:57:26;;;;;;;2.50;2.30;;;;;;;21.71;34.34;93622.41;6114805;28;109071;-60
2023/03/10 14:00:31;;;;;;;2.60;2.40;;;;;;;21.70;34.32;93615.53;6107885;28;109187;-60
2023/03/10 14:03:34;;;;;;;2.80;2.60;;;;;;;21.69;34.71;93620.09;6110475;28;111967;-60
2023/03/10 14:06:39;;;;;;;2.50;2.30;;;;;;;21.70;34.18;93634.19;6113900;28;109427;-60
2023/03/10 14:09:42;;;;;;;3.10;2.50;;;;;;;21.70;34.61;93626.19;6114274;28;109250;-60
2023/03/10 14:12:47;;;;;;;2.47;2.27;;;;;;;21.69;34.28;93609.44;6102922;28;109824;-60
2023/03/10 14:15:55;;;;;;;2.50;2.30;;;;;;;21.69;34.61;93604.13;6113999;28;110998;-60
2023/03/10 14:18:58;;;;;;;2.10;2.00;;;;;;;21.70;34.16;93620.88;6112920;28;109230;-60
2023/03/10 14:22:02;;;;;;;2.33;2.13;;;;;;;21.69;34.53;93598.03;6113703;28;110528;-59